createdAt,value
2015-12-17T00:00:50.015Z,1013
2015-12-17T00:01:49.940Z,1013
2015-12-17T00:02:49.896Z,1012.8
2015-12-17T00:03:49.836Z,1013
2015-12-17T00:04:49.792Z,1012.8
2015-12-17T00:05:49.748Z,1012.9
2015-12-17T00:06:49.672Z,1012.9
2015-12-17T00:07:49.628Z,1012.9
2015-12-17T00:08:49.583Z,1013
2015-12-17T00:09:49.540Z,1013
2015-12-17T00:10:49.464Z,1013
2015-12-17T00:11:49.264Z,1013
2015-12-17T00:12:49.376Z,1013
2015-12-17T00:13:49.363Z,1013
2015-12-17T00:14:49.272Z,1012.9
2015-12-17T00:15:49.275Z,1012.9
2015-12-17T00:16:49.168Z,1013
2015-12-17T00:17:49.124Z,1013
2015-12-17T00:18:49.251Z,1013
2015-12-17T00:19:49.001Z,1013
2015-12-17T00:20:48.957Z,1013
2015-12-17T00:21:48.897Z,1013
2015-12-17T00:22:48.885Z,1013
2015-12-17T00:23:48.809Z,1013
2015-12-17T00:24:48.983Z,1013
2015-12-17T00:25:48.705Z,1013
2015-12-17T00:26:48.646Z,1012.9
2015-12-17T00:27:48.586Z,1012.9
2015-12-17T00:28:48.526Z,1013
2015-12-17T00:29:48.482Z,1012.9
2015-12-17T00:30:48.283Z,1013
2015-12-17T00:31:48.379Z,1013
2015-12-17T00:32:48.316Z,1012.9
2015-12-17T00:33:48.257Z,1012.9
2015-12-17T00:34:48.213Z,1012.8
2015-12-17T00:35:48.168Z,1012.8
2015-12-17T00:36:48.124Z,1012.8
2015-12-17T00:37:48.049Z,1012.8
2015-12-17T00:38:48.020Z,1012.7
2015-12-17T00:39:47.944Z,1012.8
2015-12-17T00:40:47.901Z,1012.7
2015-12-17T00:41:47.872Z,1012.8
2015-12-17T00:42:47.797Z,1012.8
2015-12-17T00:43:47.940Z,1012.7
2015-12-17T00:44:47.896Z,1012.7
2015-12-17T00:45:47.648Z,1012.7
2015-12-17T00:46:47.604Z,1012.8
2015-12-17T00:47:47.748Z,1012.8
2015-12-17T00:48:47.688Z,1012.8
2015-12-17T00:49:47.426Z,1012.7
2015-12-17T00:50:47.382Z,1012.7
2015-12-17T00:51:47.321Z,1012.8
2015-12-17T00:52:47.277Z,1012.7
2015-12-17T00:53:47.233Z,1012.8
2015-12-17T00:54:47.189Z,1012.8
2015-12-17T00:55:47.129Z,1012.8
2015-12-17T00:56:47.506Z,1012.7
2015-12-17T00:57:47.244Z,1012.7
2015-12-17T00:58:47.200Z,1012.7
2015-12-17T00:59:46.937Z,1012.8
2015-12-17T01:00:46.861Z,1012.6
2015-12-17T01:01:46.801Z,1012.7
2015-12-17T01:02:46.757Z,1012.8
2015-12-17T01:03:46.697Z,1012.8
2015-12-17T01:04:46.654Z,1012.7
2015-12-17T01:05:46.610Z,1012.6
2015-12-17T01:06:46.550Z,1012.7
2015-12-17T01:07:46.928Z,1012.7
2015-12-17T01:08:46.430Z,1012.8
2015-12-17T01:09:46.386Z,1012.7
2015-12-17T01:10:46.342Z,1012.7
2015-12-17T01:11:46.298Z,1012.6
2015-12-17T01:12:46.222Z,1012.6
2015-12-17T01:13:46.178Z,1012.7
2015-12-17T01:14:46.133Z,1012.6
2015-12-17T01:15:46.075Z,1012.6
2015-12-17T01:16:46.014Z,1012.7
2015-12-17T01:17:45.955Z,1012.7
2015-12-17T01:18:45.941Z,1012.8
2015-12-17T01:19:45.866Z,1012.8
2015-12-17T01:20:46.041Z,1012.7
2015-12-17T01:21:45.981Z,1012.7
2015-12-17T01:22:45.719Z,1012.7
2015-12-17T01:23:45.674Z,1012.7
2015-12-17T01:24:45.802Z,1012.9
2015-12-17T01:25:45.567Z,1012.7
2015-12-17T01:26:45.492Z,1012.7
2015-12-17T01:27:45.448Z,1012.8
2015-12-17T01:28:45.404Z,1012.9
2015-12-17T01:29:45.328Z,1012.8
2015-12-17T01:30:45.487Z,1012.7
2015-12-17T01:31:45.240Z,1012.7
2015-12-17T01:32:45.180Z,1012.8
2015-12-17T01:33:45.136Z,1012.8
2015-12-17T01:34:45.077Z,1012.9
2015-12-17T01:35:45.032Z,1012.8
2015-12-17T01:36:45.176Z,1012.8
2015-12-17T01:37:44.929Z,1012.8
2015-12-17T01:38:44.899Z,1012.8
2015-12-17T01:39:44.824Z,1012.8
2015-12-17T01:40:44.968Z,1012.9
2015-12-17T01:41:44.704Z,1012.7
2015-12-17T01:42:44.660Z,1012.8
2015-12-17T01:43:44.852Z,1012.7
2015-12-17T01:44:44.588Z,1012.8
2015-12-17T01:45:44.513Z,1012.7
2015-12-17T01:46:44.657Z,1012.7
2015-12-17T01:47:44.409Z,1012.7
2015-12-17T01:48:44.349Z,1012.8
2015-12-17T01:49:44.305Z,1012.7
2015-12-17T01:50:44.261Z,1012.8
2015-12-17T01:51:44.185Z,1012.7
2015-12-17T01:52:44.141Z,1012.7
2015-12-17T01:53:44.098Z,1012.7
2015-12-17T01:54:44.038Z,1012.7
2015-12-17T01:55:43.993Z,1012.7
2015-12-17T01:56:43.935Z,1012.6
2015-12-17T01:57:43.890Z,1012.6
2015-12-17T01:58:43.830Z,1012.7
2015-12-17T01:59:44.005Z,1012.7
2015-12-17T02:00:43.929Z,1012.8
2015-12-17T02:01:43.666Z,1012.7
2015-12-17T02:02:43.623Z,1012.7
2015-12-17T02:03:43.579Z,1012.7
2015-12-17T02:04:43.518Z,1012.7
2015-12-17T02:05:43.474Z,1012.7
2015-12-17T02:06:43.429Z,1012.7
2015-12-17T02:07:43.367Z,1012.8
2015-12-17T02:08:43.307Z,1012.8
2015-12-17T02:09:43.279Z,1012.8
2015-12-17T02:10:43.188Z,1012.8
2015-12-17T02:11:43.144Z,1012.8
2015-12-17T02:12:43.100Z,1012.8
2015-12-17T02:13:43.026Z,1012.8
2015-12-17T02:14:42.996Z,1012.7
2015-12-17T02:15:42.937Z,1012.8
2015-12-17T02:16:42.893Z,1012.6
2015-12-17T02:17:42.833Z,1012.7
2015-12-17T02:18:42.804Z,1012.7
2015-12-17T02:19:42.729Z,1012.6
2015-12-17T02:20:42.670Z,1012.6
2015-12-17T02:21:42.625Z,1012.7
2015-12-17T02:22:42.581Z,1012.8
2015-12-17T02:23:42.537Z,1012.7
2015-12-17T02:24:42.462Z,1012.7
2015-12-17T02:25:42.651Z,1012.7
2015-12-17T02:26:42.357Z,1012.7
2015-12-17T02:27:42.314Z,1012.7
2015-12-17T02:28:42.270Z,1012.8
2015-12-17T02:29:42.195Z,1012.6
2015-12-17T02:30:42.181Z,1012.7
2015-12-17T02:31:42.105Z,1012.6
2015-12-17T02:32:42.046Z,1012.6
2015-12-17T02:33:41.986Z,1012.6
2015-12-17T02:34:41.926Z,1012.6
2015-12-17T02:35:41.882Z,1012.6
2015-12-17T02:36:41.839Z,1012.5
2015-12-17T02:37:41.810Z,1012.6
2015-12-17T02:38:41.734Z,1012.5
2015-12-17T02:39:41.675Z,1012.5
2015-12-17T02:40:41.631Z,1012.5
2015-12-17T02:41:41.571Z,1012.7
2015-12-17T02:42:41.542Z,1012.4
2015-12-17T02:43:41.467Z,1012.4
2015-12-17T02:44:41.423Z,1012.5
2015-12-17T02:45:41.363Z,1012.4
2015-12-17T02:46:41.319Z,1012.6
2015-12-17T02:47:41.272Z,1012.5
2015-12-17T02:48:41.212Z,1012.4
2015-12-17T02:49:41.153Z,1012.5
2015-12-17T02:50:41.109Z,1012.5
2015-12-17T02:51:41.064Z,1012.5
2015-12-17T02:52:41.004Z,1012.4
2015-12-17T02:53:40.961Z,1012.6
2015-12-17T02:54:40.901Z,1012.5
2015-12-17T02:55:40.856Z,1012.6
2015-12-17T02:56:40.797Z,1012.6
2015-12-17T02:57:40.737Z,1012.6
2015-12-17T02:58:40.692Z,1012.5
2015-12-17T02:59:40.633Z,1012.5
2015-12-17T03:00:40.579Z,1012.5
2015-12-17T03:01:40.523Z,1012.6
2015-12-17T03:02:40.452Z,1012.5
2015-12-17T03:03:40.396Z,1012.5
2015-12-17T03:04:40.324Z,1012.5
2015-12-17T03:05:40.260Z,1012.5
2015-12-17T03:06:40.227Z,1012.6
2015-12-17T03:07:40.147Z,1012.6
2015-12-17T03:08:40.100Z,1012.6
2015-12-17T03:09:40.035Z,1012.5
2015-12-17T03:10:39.989Z,1012.7
2015-12-17T03:11:39.959Z,1012.6
2015-12-17T03:12:39.867Z,1012.5
2015-12-17T03:13:39.821Z,1012.6
2015-12-17T03:14:39.979Z,1012.6
2015-12-17T03:15:39.732Z,1012.6
2015-12-17T03:16:39.671Z,1012.5
2015-12-17T03:17:39.611Z,1012.5
2015-12-17T03:18:39.567Z,1012.6
2015-12-17T03:19:39.522Z,1012.6
2015-12-17T03:20:39.478Z,1012.6
2015-12-17T03:21:39.402Z,1012.6
2015-12-17T03:22:39.341Z,1012.5
2015-12-17T03:23:39.297Z,1012.4
2015-12-17T03:24:39.268Z,1012.5
2015-12-17T03:25:39.224Z,1012.6
2015-12-17T03:26:39.131Z,1012.5
2015-12-17T03:27:39.101Z,1012.6
2015-12-17T03:28:39.042Z,1012.5
2015-12-17T03:29:38.998Z,1012.6
2015-12-17T03:30:38.938Z,1012.5
2015-12-17T03:31:38.894Z,1012.6
2015-12-17T03:32:38.834Z,1012.6
2015-12-17T03:33:38.789Z,1012.5
2015-12-17T03:34:38.731Z,1012.6
2015-12-17T03:35:38.670Z,1012.6
2015-12-17T03:36:38.626Z,1012.6
2015-12-17T03:37:37.817Z,1012.5
2015-12-17T03:38:38.523Z,1012.4
2015-12-17T03:39:38.698Z,1012.7
2015-12-17T03:40:38.654Z,1012.7
2015-12-17T03:41:38.343Z,1012.6
2015-12-17T03:42:38.315Z,1012.6
2015-12-17T03:43:38.256Z,1012.7
2015-12-17T03:44:37.431Z,1012.5
2015-12-17T03:45:38.136Z,1012.5
2015-12-17T03:46:38.092Z,1012.6
2015-12-17T03:47:38.047Z,1012.6
2015-12-17T03:48:38.019Z,1012.6
2015-12-17T03:49:37.928Z,1012.6
2015-12-17T03:50:37.884Z,1012.6
2015-12-17T03:51:37.825Z,1012.5
2015-12-17T03:52:37.781Z,1012.7
2015-12-17T03:53:37.720Z,1012.5
2015-12-17T03:54:37.676Z,1012.6
2015-12-17T03:55:37.631Z,1012.6
2015-12-17T03:56:37.573Z,1012.6
2015-12-17T03:57:37.528Z,1012.6
2015-12-17T03:58:37.484Z,1012.6
2015-12-17T03:59:37.425Z,1012.6
2015-12-17T04:00:37.364Z,1012.6
2015-12-17T04:01:37.320Z,1012.6
2015-12-17T04:02:37.308Z,1012.6
2015-12-17T04:03:37.420Z,1012.7
2015-12-17T04:04:37.154Z,1012.6
2015-12-17T04:05:37.110Z,1012.7
2015-12-17T04:06:37.050Z,1012.7
2015-12-17T04:07:37.022Z,1012.8
2015-12-17T04:08:36.946Z,1012.7
2015-12-17T04:09:36.887Z,1012.8
2015-12-17T04:10:36.842Z,1012.8
2015-12-17T04:11:36.798Z,1012.8
2015-12-17T04:12:36.801Z,1012.7
2015-12-17T04:13:36.679Z,1012.6
2015-12-17T04:14:36.635Z,1012.6
2015-12-17T04:15:36.575Z,1012.7
2015-12-17T04:16:36.530Z,1012.6
2015-12-17T04:17:36.487Z,1012.6
2015-12-17T04:18:36.427Z,1012.5
2015-12-17T04:19:36.367Z,1012.7
2015-12-17T04:20:36.323Z,1012.5
2015-12-17T04:21:36.294Z,1012.6
2015-12-17T04:22:36.219Z,1012.6
2015-12-17T04:23:36.160Z,1012.6
2015-12-17T04:24:36.116Z,1012.6
2015-12-17T04:25:36.055Z,1012.7
2015-12-17T04:26:36.011Z,1012.6
2015-12-17T04:27:35.952Z,1012.5
2015-12-17T04:28:35.907Z,1012.6
2015-12-17T04:29:35.848Z,1012.6
2015-12-17T04:30:35.805Z,1012.6
2015-12-17T04:31:35.760Z,1012.6
2015-12-17T04:32:35.699Z,1012.5
2015-12-17T04:33:35.641Z,1012.6
2015-12-17T04:34:35.597Z,1012.6
2015-12-17T04:35:35.536Z,1012.6
2015-12-17T04:36:35.508Z,1012.7
2015-12-17T04:37:35.464Z,1012.7
2015-12-17T04:38:35.373Z,1012.5
2015-12-17T04:39:35.361Z,1012.6
2015-12-17T04:40:35.285Z,1012.6
2015-12-17T04:41:35.241Z,1012.6
2015-12-17T04:42:35.180Z,1012.6
2015-12-17T04:43:35.121Z,1012.5
2015-12-17T04:44:35.311Z,1012.5
2015-12-17T04:45:35.014Z,1012.5
2015-12-17T04:46:34.971Z,1012.5
2015-12-17T04:47:35.114Z,1012.6
2015-12-17T04:48:34.866Z,1012.6
2015-12-17T04:49:34.807Z,1012.6
2015-12-17T04:50:34.762Z,1012.5
2015-12-17T04:51:34.735Z,1012.5
2015-12-17T04:52:34.658Z,1012.7
2015-12-17T04:53:34.630Z,1012.5
2015-12-17T04:54:34.555Z,1012.4
2015-12-17T04:55:34.526Z,1012.5
2015-12-17T04:56:34.451Z,1012.5
2015-12-17T04:57:34.391Z,1012.5
2015-12-17T04:58:34.535Z,1012.5
2015-12-17T04:59:34.287Z,1012.5
2015-12-17T05:00:34.227Z,1012.6
2015-12-17T05:01:34.183Z,1012.6
2015-12-17T05:02:34.358Z,1012.5
2015-12-17T05:03:34.064Z,1012.6
2015-12-17T05:04:33.910Z,1012.6
2015-12-17T05:05:33.976Z,1012.6
2015-12-17T05:06:33.916Z,1012.6
2015-12-17T05:07:33.856Z,1012.7
2015-12-17T05:08:33.812Z,1012.7
2015-12-17T05:09:33.784Z,1012.6
2015-12-17T05:10:33.724Z,1012.7
2015-12-17T05:11:33.664Z,1012.7
2015-12-17T05:12:33.620Z,1012.6
2015-12-17T05:13:34.045Z,1012.7
2015-12-17T05:14:33.532Z,1012.7
2015-12-17T05:15:33.487Z,1012.7
2015-12-17T05:16:33.599Z,1012.6
2015-12-17T05:17:33.352Z,1012.8
2015-12-17T05:18:33.309Z,1012.7
2015-12-17T05:19:33.248Z,1012.7
2015-12-17T05:20:33.220Z,1012.6
2015-12-17T05:21:33.145Z,1012.7
2015-12-17T05:22:33.084Z,1012.7
2015-12-17T05:23:33.040Z,1012.6
2015-12-17T05:24:33.012Z,1012.6
2015-12-17T05:25:32.953Z,1012.7
2015-12-17T05:26:32.876Z,1012.6
2015-12-17T05:27:33.021Z,1012.7
2015-12-17T05:28:32.836Z,1012.6
2015-12-17T05:29:32.742Z,1012.6
2015-12-17T05:30:32.714Z,1012.7
2015-12-17T05:31:32.622Z,1012.7
2015-12-17T05:32:32.578Z,1012.7
2015-12-17T05:33:32.534Z,1012.6
2015-12-17T05:34:32.802Z,1012.6
2015-12-17T05:35:32.430Z,1012.8
2015-12-17T05:36:32.370Z,1012.7
2015-12-17T05:37:32.451Z,1012.6
2015-12-17T05:38:32.266Z,1012.6
2015-12-17T05:39:32.239Z,1012.5
2015-12-17T05:40:32.162Z,1012.7
2015-12-17T05:41:32.196Z,1012.7
2015-12-17T05:42:32.235Z,1012.7
2015-12-17T05:43:33.696Z,1012.7
2015-12-17T05:44:32.483Z,1012.7
2015-12-17T05:45:34.225Z,1012.7
2015-12-17T05:46:32.322Z,1012.6
2015-12-17T05:47:31.809Z,1012.7
2015-12-17T05:48:31.889Z,1012.8
2015-12-17T05:49:31.814Z,1012.9
2015-12-17T05:50:31.739Z,1012.8
2015-12-17T05:51:32.069Z,1012.8
2015-12-17T05:52:31.385Z,1012.7
2015-12-17T05:53:31.497Z,1012.8
2015-12-17T05:54:31.453Z,1012.7
2015-12-17T05:55:31.393Z,1012.9
2015-12-17T05:56:31.569Z,1012.8
2015-12-17T05:57:31.289Z,1012.8
2015-12-17T05:58:33.949Z,1012.8
2015-12-17T05:59:31.185Z,1012.8
2015-12-17T06:00:31.126Z,1012.8
2015-12-17T06:01:31.097Z,1012.8
2015-12-17T06:02:31.022Z,1012.8
2015-12-17T06:03:30.963Z,1012.9
2015-12-17T06:04:30.919Z,1012.8
2015-12-17T06:05:30.891Z,1013
2015-12-17T06:06:30.830Z,1013
2015-12-17T06:07:30.974Z,1012.9
2015-12-17T06:08:29.945Z,1012.8
2015-12-17T06:09:30.666Z,1012.8
2015-12-17T06:10:30.607Z,1012.9
2015-12-17T06:11:30.562Z,1012.9
2015-12-17T06:12:30.705Z,1012.9
2015-12-17T06:13:30.455Z,1013
2015-12-17T06:14:30.412Z,1012.9
2015-12-17T06:15:30.367Z,1012.9
2015-12-17T06:16:30.292Z,1012.8
2015-12-17T06:17:30.249Z,1012.8
2015-12-17T06:18:30.204Z,1012.8
2015-12-17T06:19:30.160Z,1012.8
2015-12-17T06:20:30.099Z,1012.7
2015-12-17T06:21:30.040Z,1012.7
2015-12-17T06:22:29.996Z,1012.7
2015-12-17T06:23:29.936Z,1012.8
2015-12-17T06:24:29.892Z,1012.8
2015-12-17T06:25:29.863Z,1012.9
2015-12-17T06:26:29.788Z,1012.8
2015-12-17T06:27:29.729Z,1012.8
2015-12-17T06:28:29.685Z,1012.8
2015-12-17T06:29:29.640Z,1012.8
2015-12-17T06:30:29.612Z,1012.8
2015-12-17T06:31:29.521Z,1012.7
2015-12-17T06:32:29.476Z,1012.8
2015-12-17T06:33:29.432Z,1012.9
2015-12-17T06:34:29.387Z,1012.9
2015-12-17T06:35:29.547Z,1012.9
2015-12-17T06:36:29.268Z,1012.9
2015-12-17T06:37:29.209Z,1012.9
2015-12-17T06:38:29.165Z,1012.9
2015-12-17T06:39:29.136Z,1012.9
2015-12-17T06:40:29.045Z,1012.8
2015-12-17T06:41:29.001Z,1012.9
2015-12-17T06:42:28.942Z,1012.9
2015-12-17T06:43:28.912Z,1012.9
2015-12-17T06:44:28.854Z,1012.9
2015-12-17T06:45:28.810Z,1013
2015-12-17T06:46:28.734Z,1013
2015-12-17T06:47:28.892Z,1013
2015-12-17T06:48:28.646Z,1013
2015-12-17T06:49:28.601Z,1013
2015-12-17T06:50:27.761Z,1013
2015-12-17T06:51:28.482Z,1013
2015-12-17T06:52:28.641Z,1013.1
2015-12-17T06:53:28.394Z,1013
2015-12-17T06:54:28.334Z,1013.1
2015-12-17T06:55:28.508Z,1013.1
2015-12-17T06:56:28.215Z,1013.2
2015-12-17T06:57:28.186Z,1013.1
2015-12-17T06:58:28.126Z,1013.1
2015-12-17T06:59:27.314Z,1013.1
2015-12-17T07:00:28.003Z,1013
2015-12-17T07:01:27.959Z,1013.1
2015-12-17T07:02:27.916Z,1013.1
2015-12-17T07:03:27.856Z,1013.1
2015-12-17T07:04:27.797Z,1013.1
2015-12-17T07:05:27.737Z,1013.1
2015-12-17T07:06:27.692Z,1013.1
2015-12-17T07:07:27.663Z,1013
2015-12-17T07:08:27.573Z,1013.1
2015-12-17T07:09:27.528Z,1013.1
2015-12-17T07:10:27.516Z,1013.1
2015-12-17T07:11:27.441Z,1013.1
2015-12-17T07:12:27.381Z,1013.1
2015-12-17T07:13:27.336Z,1013
2015-12-17T07:14:27.528Z,1013.1
2015-12-17T07:15:27.217Z,1013.1
2015-12-17T07:16:27.172Z,1013.1
2015-12-17T07:17:27.128Z,1013
2015-12-17T07:18:27.053Z,1013.1
2015-12-17T07:19:27.025Z,1013.2
2015-12-17T07:20:26.950Z,1013.1
2015-12-17T07:21:26.906Z,1013.1
2015-12-17T07:22:26.877Z,1013.1
2015-12-17T07:23:26.802Z,1013.2
2015-12-17T07:24:26.758Z,1013.2
2015-12-17T07:25:26.714Z,1013.2
2015-12-17T07:26:26.654Z,1013.2
2015-12-17T07:27:26.595Z,1013.2
2015-12-17T07:28:26.534Z,1013.3
2015-12-17T07:29:26.491Z,1013.2
2015-12-17T07:30:26.446Z,1013.3
2015-12-17T07:31:26.386Z,1013.1
2015-12-17T07:32:26.342Z,1013.3
2015-12-17T07:33:26.282Z,1013.3
2015-12-17T07:34:26.222Z,1013.2
2015-12-17T07:35:26.194Z,1013.1
2015-12-17T07:36:26.134Z,1013.2
2015-12-17T07:37:26.071Z,1013.2
2015-12-17T07:38:26.012Z,1013.2
2015-12-17T07:39:25.968Z,1013.1
2015-12-17T07:40:25.189Z,1013.3
2015-12-17T07:41:25.864Z,1013.3
2015-12-17T07:42:25.820Z,1013.3
2015-12-17T07:43:25.760Z,1013.3
2015-12-17T07:44:25.716Z,1013.1
2015-12-17T07:45:25.672Z,1013.2
2015-12-17T07:46:25.613Z,1013.1
2015-12-17T07:47:25.552Z,1013.1
2015-12-17T07:48:25.493Z,1013.2
2015-12-17T07:49:25.479Z,1013.2
2015-12-17T07:50:25.388Z,1013.2
2015-12-17T07:51:25.344Z,1013.2
2015-12-17T07:52:25.285Z,1013.1
2015-12-17T07:53:25.241Z,1013.2
2015-12-17T07:54:25.196Z,1013.1
2015-12-17T07:55:24.387Z,1013.3
2015-12-17T07:56:25.311Z,1013.3
2015-12-17T07:57:25.032Z,1013.3
2015-12-17T07:58:24.988Z,1013.2
2015-12-17T07:59:24.929Z,1013.2
2015-12-17T08:00:24.885Z,1013.2
2015-12-17T08:01:24.825Z,1013.2
2015-12-17T08:02:24.004Z,1013.2
2015-12-17T08:03:24.742Z,1013.3
2015-12-17T08:04:24.698Z,1013.3
2015-12-17T08:05:24.622Z,1013.4
2015-12-17T08:06:24.579Z,1013.3
2015-12-17T08:07:24.519Z,1013.2
2015-12-17T08:08:24.459Z,1013.3
2015-12-17T08:09:24.617Z,1013.3
2015-12-17T08:10:24.370Z,1013.2
2015-12-17T08:11:24.311Z,1013.2
2015-12-17T08:12:24.251Z,1013.2
2015-12-17T08:13:24.410Z,1013.2
2015-12-17T08:14:24.163Z,1013.2
2015-12-17T08:15:24.134Z,1013.3
2015-12-17T08:16:24.075Z,1013.3
2015-12-17T08:17:24.015Z,1013.3
2015-12-17T08:18:23.956Z,1013.3
2015-12-17T08:19:24.145Z,1013.3
2015-12-17T08:20:23.881Z,1013.2
2015-12-17T08:21:23.819Z,1013.3
2015-12-17T08:22:23.744Z,1013.1
2015-12-17T08:23:23.700Z,1013.3
2015-12-17T08:24:23.656Z,1013.2
2015-12-17T08:25:23.596Z,1013.2
2015-12-17T08:26:23.567Z,1013.1
2015-12-17T08:27:23.493Z,1013.1
2015-12-17T08:28:23.433Z,1013.2
2015-12-17T08:29:23.389Z,1013.3
2015-12-17T08:30:23.361Z,1013.2
2015-12-17T08:31:23.300Z,1013.2
2015-12-17T08:32:23.241Z,1013.2
2015-12-17T08:33:23.181Z,1013.3
2015-12-17T08:34:23.137Z,1013
2015-12-17T08:35:23.108Z,1013.2
2015-12-17T08:36:23.048Z,1013.2
2015-12-17T08:37:22.973Z,1013.1
2015-12-17T08:38:22.945Z,1013.2
2015-12-17T08:39:22.885Z,1013.1
2015-12-17T08:40:22.857Z,1013.3
2015-12-17T08:41:22.797Z,1013.1
2015-12-17T08:42:22.737Z,1013.2
2015-12-17T08:43:22.678Z,1013.3
2015-12-17T08:44:22.633Z,1013.3
2015-12-17T08:45:22.590Z,1013.3
2015-12-17T08:46:22.514Z,1013.2
2015-12-17T08:47:22.470Z,1013.3
2015-12-17T08:48:22.410Z,1013.3
2015-12-17T08:49:22.381Z,1013.3
2015-12-17T08:50:22.337Z,1013.3
2015-12-17T08:51:22.262Z,1013.3
2015-12-17T08:52:22.218Z,1013.3
2015-12-17T08:53:22.158Z,1013.3
2015-12-17T08:54:22.114Z,1013.3
2015-12-17T08:55:22.070Z,1013.3
2015-12-17T08:56:22.010Z,1013.2
2015-12-17T08:57:21.967Z,1013.3
2015-12-17T08:58:21.906Z,1013.1
2015-12-17T08:59:21.859Z,1013.2
2015-12-17T09:00:21.830Z,1013.3
2015-12-17T09:01:21.739Z,1013.2
2015-12-17T09:02:21.711Z,1013.2
2015-12-17T09:03:21.652Z,1013.2
2015-12-17T09:04:21.607Z,1013.2
2015-12-17T09:05:21.533Z,1013.2
2015-12-17T09:06:21.503Z,1013.1
2015-12-17T09:07:21.460Z,1013.2
2015-12-17T09:08:20.650Z,1013.2
2015-12-17T09:09:21.341Z,1013.2
2015-12-17T09:10:21.280Z,1013.1
2015-12-17T09:11:21.252Z,1013.2
2015-12-17T09:12:21.191Z,1013.2
2015-12-17T09:13:21.179Z,1013.2
2015-12-17T09:14:21.119Z,1013.2
2015-12-17T09:15:21.044Z,1013
2015-12-17T09:16:21.047Z,1013.2
2015-12-17T09:17:20.924Z,1013.1
2015-12-17T09:18:20.880Z,1013
2015-12-17T09:19:20.836Z,1013.1
2015-12-17T09:20:20.777Z,1013.2
2015-12-17T09:21:20.733Z,1013.1
2015-12-17T09:22:20.703Z,1013.1
2015-12-17T09:23:19.862Z,1013.1
2015-12-17T09:24:20.600Z,1013.1
2015-12-17T09:25:20.524Z,1013.1
2015-12-17T09:26:20.480Z,1013
2015-12-17T09:27:20.421Z,1013
2015-12-17T09:28:20.361Z,1013.1
2015-12-17T09:29:20.316Z,1013
2015-12-17T09:30:20.257Z,1013.1
2015-12-17T09:31:20.229Z,1013
2015-12-17T09:32:20.185Z,1013
2015-12-17T09:33:20.109Z,1013
2015-12-17T09:34:20.066Z,1012.9
2015-12-17T09:35:20.004Z,1013
2015-12-17T09:36:19.961Z,1013.1
2015-12-17T09:37:19.917Z,1013.1
2015-12-17T09:38:19.841Z,1013
2015-12-17T09:39:19.798Z,1013
2015-12-17T09:40:19.754Z,1013
2015-12-17T09:41:19.709Z,1013.1
2015-12-17T09:42:19.665Z,1013
2015-12-17T09:43:19.590Z,1013.1
2015-12-17T09:44:19.545Z,1013
2015-12-17T09:45:19.482Z,1013
2015-12-17T09:46:19.439Z,1013
2015-12-17T09:47:19.410Z,1012.9
2015-12-17T09:48:19.319Z,1013.1
2015-12-17T09:49:19.276Z,1013
2015-12-17T09:50:19.231Z,1013.1
2015-12-17T09:51:19.171Z,1013
2015-12-17T09:52:19.142Z,1013
2015-12-17T09:53:19.270Z,1013.1
2015-12-17T09:54:19.023Z,1012.9
2015-12-17T09:55:18.979Z,1013.1
2015-12-17T09:57:18.859Z,1013.1
2015-12-17T09:58:18.815Z,1013.1
2015-12-17T09:59:18.756Z,1013
2015-12-17T10:00:18.728Z,1013
2015-12-17T10:01:18.683Z,1013
2015-12-17T10:02:18.609Z,1013
2015-12-17T10:03:18.564Z,1013.1
2015-12-17T10:04:18.754Z,1012.9
2015-12-17T10:05:18.460Z,1013
2015-12-17T10:06:18.415Z,1013.1
2015-12-17T10:07:18.356Z,1013
2015-12-17T10:08:18.296Z,1013
2015-12-17T10:09:18.252Z,1013
2015-12-17T10:10:18.209Z,1012.9
2015-12-17T10:11:18.164Z,1013
2015-12-17T10:12:18.104Z,1012.9
2015-12-17T10:13:18.248Z,1013
2015-12-17T10:14:18.001Z,1013
2015-12-17T10:15:17.956Z,1012.9
2015-12-17T10:16:17.897Z,1012.9
2015-12-17T10:17:18.039Z,1012.8
2015-12-17T10:18:17.793Z,1012.9
2015-12-17T10:19:17.734Z,1012.9
2015-12-17T10:20:17.704Z,1013
2015-12-17T10:21:17.629Z,1012.9
2015-12-17T10:22:17.569Z,1012.9
2015-12-17T10:23:17.366Z,1012.8
2015-12-17T10:24:17.478Z,1012.8
2015-12-17T10:25:17.434Z,1012.8
2015-12-17T10:26:17.375Z,1012.8
2015-12-17T10:27:17.517Z,1012.8
2015-12-17T10:28:17.270Z,1012.7
2015-12-17T10:29:17.226Z,1012.8
2015-12-17T10:30:17.198Z,1012.7
2015-12-17T10:31:17.106Z,1012.7
2015-12-17T10:32:17.064Z,1012.7
2015-12-17T10:33:17.019Z,1012.6
2015-12-17T10:34:16.975Z,1012.6
2015-12-17T10:35:16.915Z,1012.6
2015-12-17T10:36:16.855Z,1012.7
2015-12-17T10:37:16.795Z,1012.5
2015-12-17T10:38:16.767Z,1012.6
2015-12-17T10:39:16.708Z,1012.6
2015-12-17T10:40:16.648Z,1012.5
2015-12-17T10:41:16.603Z,1012.5
2015-12-17T10:42:16.544Z,1012.4
2015-12-17T10:43:16.515Z,1012.4
2015-12-17T10:44:16.471Z,1012.5
2015-12-17T10:45:16.630Z,1012.5
2015-12-17T10:46:16.352Z,1012.5
2015-12-17T10:47:16.292Z,1012.4
2015-12-17T10:48:16.248Z,1012.4
2015-12-17T10:49:16.203Z,1012.3
2015-12-17T10:50:16.144Z,1012.3
2015-12-17T10:51:16.084Z,1012.4
2015-12-17T10:52:16.258Z,1012.4
2015-12-17T10:53:16.183Z,1012.3
2015-12-17T10:54:15.937Z,1012.3
2015-12-17T10:55:16.017Z,1012.4
2015-12-17T10:56:15.848Z,1012.3
2015-12-17T10:57:15.788Z,1012.5
2015-12-17T10:58:15.713Z,1012.5
2015-12-17T10:59:15.683Z,1012.5
2015-12-17T11:00:15.624Z,1012.5
2015-12-17T11:01:15.596Z,1012.4
2015-12-17T11:02:15.536Z,1012.5
2015-12-17T11:03:15.458Z,1012.4
2015-12-17T11:04:15.413Z,1012.2
2015-12-17T11:05:15.401Z,1012.4
2015-12-17T11:06:15.310Z,1012.4
2015-12-17T11:07:15.250Z,1012.2
2015-12-17T11:08:15.206Z,1012.4
2015-12-17T11:09:15.146Z,1012.4
2015-12-17T11:10:15.118Z,1012.4
2015-12-17T11:11:15.043Z,1012.3
2015-12-17T11:12:14.999Z,1012.4
2015-12-17T11:13:14.955Z,1012.3
2015-12-17T11:14:14.895Z,1012.4
2015-12-17T11:15:14.882Z,1012.5
2015-12-17T11:16:14.807Z,1012.2
2015-12-17T11:17:14.746Z,1012.2
2015-12-17T11:18:14.718Z,1012.2
2015-12-17T11:19:14.658Z,1012.2
2015-12-17T11:20:14.599Z,1012.2
2015-12-17T11:21:14.742Z,1012.3
2015-12-17T11:22:14.729Z,1012.3
2015-12-17T11:23:14.685Z,1012.3
2015-12-17T11:24:14.391Z,1012.3
2015-12-17T11:25:13.597Z,1012.3
2015-12-17T11:26:14.288Z,1012.3
2015-12-17T11:27:14.243Z,1012.3
2015-12-17T11:28:14.199Z,1012.3
2015-12-17T11:29:14.154Z,1012.3
2015-12-17T11:30:14.096Z,1012.2
2015-12-17T11:31:14.051Z,1012.2
2015-12-17T11:32:13.991Z,1012.2
2015-12-17T11:33:13.932Z,1012
2015-12-17T11:34:13.903Z,1012
2015-12-17T11:35:13.827Z,1012
2015-12-17T11:36:13.782Z,1011.6
2015-12-17T11:37:13.740Z,1011.2
2015-12-17T11:38:13.679Z,1011.6
2015-12-17T11:39:13.651Z,1011
2015-12-17T11:40:13.590Z,1011.2
2015-12-17T11:41:13.531Z,1011.5
2015-12-17T11:42:13.737Z,1010.3
2015-12-17T11:43:13.459Z,1011.2
2015-12-17T11:44:13.415Z,1010.1
2015-12-17T11:45:13.352Z,1010.6
2015-12-17T11:46:13.323Z,1010.1
2015-12-17T11:47:13.280Z,1011
2015-12-17T11:48:13.235Z,1011.2
2015-12-17T11:49:13.176Z,1011.2
2015-12-17T11:50:13.147Z,1011.4
2015-12-17T11:51:13.088Z,1011.5
2015-12-17T11:52:13.060Z,1011.6
2015-12-17T11:53:13.015Z,1011.6
2015-12-17T11:54:12.955Z,1011.8
2015-12-17T11:55:13.098Z,1011.7
2015-12-17T11:56:12.851Z,1011.8
2015-12-17T11:57:12.823Z,1011.8
2015-12-17T11:58:12.825Z,1011.8
2015-12-17T11:59:12.906Z,1011.8
2015-12-17T12:00:12.660Z,1011.8
2015-12-17T12:01:12.614Z,1011.8
2015-12-17T12:02:12.570Z,1011.9
2015-12-17T12:03:12.526Z,1011.8
2015-12-17T12:04:12.451Z,1011.8
2015-12-17T12:05:12.407Z,1011.8
2015-12-17T12:06:12.358Z,1011.8
2015-12-17T12:07:12.334Z,1012
2015-12-17T12:08:12.433Z,1011.8
2015-12-17T12:09:12.174Z,1011.7
2015-12-17T12:10:12.117Z,1011.8
2015-12-17T12:11:12.299Z,1011.8
2015-12-17T12:12:12.017Z,1011.8
2015-12-17T12:13:11.936Z,1011.9
2015-12-17T12:14:11.889Z,1011.8
2015-12-17T12:15:11.840Z,1011.8
2015-12-17T12:16:11.809Z,1011.8
2015-12-17T12:17:11.747Z,1011.8
2015-12-17T12:18:11.686Z,1011.8
2015-12-17T12:19:11.625Z,1011.8
2015-12-17T12:20:11.579Z,1011.8
2015-12-17T12:21:11.551Z,1011.8
2015-12-17T12:22:11.474Z,1011.8
2015-12-17T12:23:11.430Z,1011.8
2015-12-17T12:24:11.369Z,1011.8
2015-12-17T12:25:11.325Z,1011.7
2015-12-17T12:26:11.281Z,1011.8
2015-12-17T12:27:11.221Z,1011.8
2015-12-17T12:28:11.363Z,1011.8
2015-12-17T12:29:11.319Z,1011.8
2015-12-17T12:30:11.069Z,1011.7
2015-12-17T12:31:11.055Z,1011.7
2015-12-17T12:32:10.964Z,1011.8
2015-12-17T12:33:10.952Z,1011.8
2015-12-17T12:34:11.063Z,1011.8